Time;durP1;ratioP1;P1;durP2;ratioP2;P2;SDS_P1;SDS_P2;PMS_P1;PMS_P2;Temp;Humidity;BMP_temperature;BMP_pressure;BME280_temperature;BME280_humidity;BME280_pressure;Samples;Min_cycle;Max_cycle;Signal;HPM_P1;HPM_P2
2022/07/11 00:01:28;;;;;;;0.60;0.50;;;;;;;18.00;100.00;95254.94;5132517;27;20517;-59
2022/07/11 00:03:56;;;;;;;0.40;0.30;;;;;;;18.11;100.00;95271.50;5132825;27;20479;-59
2022/07/11 00:06:25;;;;;;;0.50;0.40;;;;;;;18.22;100.00;95267.34;5132944;27;20509;-59
2022/07/11 00:08:55;;;;;;;0.50;0.50;;;;;;;18.31;100.00;95268.16;5132681;28;20462;-59
2022/07/11 00:11:23;;;;;;;0.50;0.47;;;;;;;18.33;100.00;95276.66;5132601;28;20534;-59
2022/07/11 00:13:52;;;;;;;0.50;0.30;;;;;;;17.94;100.00;95266.91;5132755;28;20494;-59
2022/07/11 00:16:21;;;;;;;0.50;0.40;;;;;;;18.09;100.00;95277.16;5132873;28;20534;-59
2022/07/11 00:18:50;;;;;;;1.13;0.90;;;;;;;18.14;100.00;95276.22;5132679;28;20422;-59
2022/07/11 00:21:19;;;;;;;0.73;0.50;;;;;;;18.12;100.00;95281.09;5132590;28;20431;-58
2022/07/11 00:23:47;;;;;;;0.40;0.30;;;;;;;17.91;100.00;95280.19;5132838;28;20874;-58
2022/07/11 00:26:18;;;;;;;0.80;0.50;;;;;;;18.05;100.00;95292.31;5132540;28;20483;-58
2022/07/11 00:28:46;;;;;;;0.50;0.40;;;;;;;18.00;100.00;95278.28;5132459;28;20450;-58
2022/07/11 00:31:15;;;;;;;0.70;0.60;;;;;;;18.00;100.00;95270.22;5132709;28;20553;-58
2022/07/11 00:33:43;;;;;;;0.50;0.50;;;;;;;18.06;100.00;95283.19;5132350;28;20798;-58
2022/07/11 00:36:12;;;;;;;1.40;1.37;;;;;;;18.10;100.00;95280.63;5132657;28;20507;-58
2022/07/11 00:38:41;;;;;;;0.60;0.60;;;;;;;18.22;100.00;95286.13;5131998;28;20875;-58
2022/07/11 00:41:10;;;;;;;0.40;0.23;;;;;;;18.09;100.00;95287.88;5132991;28;20472;-58
2022/07/11 00:43:42;;;;;;;0.70;0.70;;;;;;;17.25;100.00;95243.84;5132575;28;20462;-58
2022/07/11 00:46:12;;;;;;;0.63;0.63;;;;;;;17.44;100.00;95287.19;5131438;28;20419;-58
2022/07/11 00:48:41;;;;;;;0.90;0.70;;;;;;;17.58;100.00;95296.69;5132246;28;20430;-57
2022/07/11 00:51:09;;;;;;;1.90;0.40;;;;;;;17.38;100.00;95296.50;5132228;28;21008;-58
2022/07/11 00:53:37;;;;;;;0.57;0.53;;;;;;;17.29;100.00;95293.00;5132212;28;20981;-58
2022/07/11 00:56:08;;;;;;;0.50;0.50;;;;;;;16.66;100.00;95302.22;5132263;28;20517;-59
2022/07/11 00:58:36;;;;;;;0.60;0.50;;;;;;;16.37;100.00;95297.28;5132178;28;20517;-59
2022/07/11 01:01:06;;;;;;;0.50;0.30;;;;;;;16.71;100.00;95304.75;5132479;28;20450;-59
2022/07/11 01:03:39;;;;;;;0.50;0.40;;;;;;;16.59;100.00;95301.06;5132192;28;20430;-59
2022/07/11 01:06:08;;;;;;;0.67;0.50;;;;;;;16.80;100.00;95294.09;5132484;28;20423;-59
2022/07/11 01:08:40;;;;;;;0.50;0.50;;;;;;;16.80;100.00;95294.88;5131768;28;20454;-59
2022/07/11 01:11:12;;;;;;;0.40;0.30;;;;;;;16.78;100.00;95224.00;5131990;28;20565;-59
2022/07/11 01:13:41;;;;;;;0.70;0.70;;;;;;;16.81;100.00;95234.09;5132500;27;20426;-59
2022/07/11 01:16:13;;;;;;;0.50;0.40;;;;;;;17.22;100.00;95285.41;5135803;27;20427;-59
2022/07/11 01:18:44;;;;;;;0.60;0.50;;;;;;;17.38;100.00;95280.41;5135727;27;20960;-59
2022/07/11 01:21:21;;;;;;;1.13;1.13;;;;;;;17.17;100.00;95280.22;5135687;27;20460;-59
2022/07/11 01:23:52;;;;;;;0.50;0.30;;;;;;;17.21;100.00;95281.16;5135972;27;20454;-59
2022/07/11 01:26:21;;;;;;;0.50;0.40;;;;;;;17.35;100.00;95281.84;5135607;27;20474;-59
2022/07/11 01:28:50;;;;;;;0.40;0.40;;;;;;;17.49;100.00;95289.72;5135565;27;20432;-58
2022/07/11 01:31:19;;;;;;;0.40;0.30;;;;;;;17.45;100.00;95254.75;5135350;27;20470;-59
2022/07/11 01:33:48;;;;;;;0.50;0.40;;;;;;;17.45;100.00;95294.94;5135427;27;20434;-59
2022/07/11 01:36:16;;;;;;;0.63;0.50;;;;;;;17.60;100.00;95291.03;5135226;27;20446;-59
2022/07/11 01:38:45;;;;;;;0.50;0.30;;;;;;;17.62;100.00;95289.63;5135660;27;20420;-59
2022/07/11 01:41:14;;;;;;;0.50;0.30;;;;;;;17.57;100.00;95291.66;5135256;27;20469;-59
2022/07/11 01:43:44;;;;;;;0.47;0.40;;;;;;;17.13;100.00;95284.59;5134857;27;20439;-59
2022/07/11 01:46:13;;;;;;;0.57;0.50;;;;;;;17.38;100.00;95286.53;5135546;27;20423;-59
2022/07/11 01:48:41;;;;;;;0.50;0.40;;;;;;;17.25;100.00;95284.00;5135257;27;20924;-58
2022/07/11 01:51:10;;;;;;;0.40;0.30;;;;;;;17.02;100.00;95286.00;5135009;27;21050;-58
2022/07/11 01:53:38;;;;;;;0.73;0.50;;;;;;;17.14;100.00;95296.88;5135387;27;20446;-58
2022/07/11 01:56:07;;;;;;;0.60;0.40;;;;;;;17.30;100.00;95291.91;5134983;27;20430;-59
2022/07/11 01:58:49;;;;;;;0.60;0.43;;;;;;;17.40;100.00;95292.41;5134775;27;20505;-59
2022/07/11 02:01:18;;;;;;;0.60;0.60;;;;;;;17.36;100.00;95291.44;5135148;27;20489;-59
2022/07/11 02:03:46;;;;;;;0.50;0.50;;;;;;;17.36;100.00;95282.59;5134910;27;20410;-59
2022/07/11 02:06:15;;;;;;;0.50;0.50;;;;;;;17.13;100.00;95244.41;5134304;27;20431;-59
2022/07/11 02:08:43;;;;;;;0.40;0.30;;;;;;;17.37;100.00;95287.66;5134784;27;20415;-58
2022/07/11 02:11:12;;;;;;;0.50;0.30;;;;;;;17.33;100.00;95286.69;5134898;27;20488;-58
2022/07/11 02:13:40;;;;;;;0.70;0.40;;;;;;;17.16;100.00;95278.63;5134803;27;20521;-58
2022/07/11 02:16:10;;;;;;;0.57;0.47;;;;;;;17.04;100.00;95286.47;5134589;27;20463;-58
2022/07/11 02:18:40;;;;;;;0.60;0.47;;;;;;;17.23;100.00;95292.34;5134609;27;20487;-58
2022/07/11 02:21:09;;;;;;;0.43;0.30;;;;;;;17.20;100.00;95289.50;5134566;27;20518;-58
2022/07/11 02:23:38;;;;;;;0.70;0.50;;;;;;;17.21;100.00;95294.53;5134547;27;20483;-58
2022/07/11 02:26:07;;;;;;;0.40;0.30;;;;;;;17.23;100.00;95291.56;5134715;27;20431;-59
2022/07/11 02:28:36;;;;;;;0.40;0.30;;;;;;;16.82;100.00;95303.41;5134703;27;20474;-59
2022/07/11 02:31:05;;;;;;;0.70;0.70;;;;;;;17.03;100.00;95300.94;5134294;27;21000;-59
2022/07/11 02:33:35;;;;;;;0.50;0.40;;;;;;;16.79;100.00;95276.44;5133710;27;20434;-58
2022/07/11 02:36:04;;;;;;;0.80;0.50;;;;;;;16.96;100.00;95312.09;5134211;27;20501;-58
2022/07/11 02:38:32;;;;;;;0.53;0.30;;;;;;;16.87;100.00;95313.97;5133930;27;20853;-58
2022/07/11 02:41:01;;;;;;;0.40;0.30;;;;;;;16.90;100.00;95307.97;5134088;27;20465;-58
2022/07/11 02:43:30;;;;;;;4.40;0.30;;;;;;;16.91;100.00;95319.47;5133335;27;20510;-58
2022/07/11 02:45:58;;;;;;;0.90;0.40;;;;;;;16.97;100.00;95318.25;5134123;27;20458;-58
2022/07/11 02:48:27;;;;;;;0.60;0.60;;;;;;;16.95;100.00;95321.22;5133888;27;20475;-58
2022/07/11 02:50:56;;;;;;;0.70;0.70;;;;;;;16.50;100.00;95317.81;5133372;27;20474;-58
2022/07/11 02:53:25;;;;;;;0.40;0.30;;;;;;;16.26;100.00;95333.41;5133194;27;20469;-58
2022/07/11 02:55:54;;;;;;;1.00;1.00;;;;;;;16.57;100.00;95348.75;5133891;27;20454;-58
2022/07/11 02:58:22;;;;;;;0.40;0.30;;;;;;;16.77;100.00;95341.00;5134123;27;20475;-58
2022/07/11 03:00:51;;;;;;;0.50;0.30;;;;;;;16.83;100.00;95345.13;5133735;27;20462;-58
2022/07/11 03:03:20;;;;;;;0.50;0.50;;;;;;;16.85;100.00;95345.59;5133730;27;20426;-58
2022/07/11 03:05:48;;;;;;;0.50;0.37;;;;;;;16.83;100.00;95347.00;5133499;27;20966;-58
2022/07/11 03:08:18;;;;;;;0.67;0.67;;;;;;;16.66;100.00;95352.25;5133026;27;20465;-58
2022/07/11 03:10:48;;;;;;;1.07;0.97;;;;;;;16.59;100.00;95349.22;5133804;27;20501;-58
2022/07/11 03:13:16;;;;;;;0.60;0.40;;;;;;;16.71;100.00;95336.06;5133501;27;20553;-58
2022/07/11 03:15:45;;;;;;;0.60;0.50;;;;;;;16.81;100.00;95339.28;5133253;27;20502;-59
2022/07/11 03:18:13;;;;;;;0.40;0.30;;;;;;;16.89;100.00;95335.88;5133810;27;20518;-56
2022/07/11 03:20:42;;;;;;;0.40;0.30;;;;;;;16.63;100.00;95339.47;5133678;27;20435;-55
2022/07/11 03:23:10;;;;;;;0.50;0.30;;;;;;;16.73;100.00;95342.69;5133390;27;20518;-58
2022/07/11 03:25:40;;;;;;;0.60;0.40;;;;;;;16.75;100.00;95345.84;5133608;27;20459;-56
2022/07/11 03:28:08;;;;;;;0.40;0.30;;;;;;;16.86;100.00;95357.09;5133564;27;20415;-57
2022/07/11 03:30:37;;;;;;;1.33;0.40;;;;;;;16.91;100.00;95343.56;5133135;27;20483;-57
2022/07/11 03:33:05;;;;;;;0.40;0.30;;;;;;;16.61;100.00;95355.06;5133088;27;20488;-58
2022/07/11 03:35:43;;;;;;;0.50;0.30;;;;;;;16.51;100.00;95356.88;5132578;27;20434;-58
2022/07/11 03:38:13;;;;;;;0.80;0.80;;;;;;;16.72;100.00;95354.50;5132974;27;20449;-58
2022/07/11 03:40:43;;;;;;;0.40;0.20;;;;;;;16.97;100.00;95358.41;5132951;27;20426;-58
2022/07/11 03:43:11;;;;;;;0.40;0.30;;;;;;;16.93;100.00;95350.19;5133045;27;20502;-58
2022/07/11 03:45:40;;;;;;;0.60;0.60;;;;;;;17.00;100.00;95363.16;5132694;27;20978;-58
2022/07/11 03:48:08;;;;;;;0.40;0.30;;;;;;;17.02;100.00;95355.59;5133064;27;20843;-58
2022/07/11 03:50:37;;;;;;;0.40;0.30;;;;;;;17.05;100.00;95355.00;5133033;27;20419;-58
2022/07/11 03:53:05;;;;;;;0.50;0.50;;;;;;;17.02;100.00;95355.59;5132789;27;20560;-58
2022/07/11 03:55:34;;;;;;;0.40;0.30;;;;;;;17.14;100.00;95366.53;5132999;27;20506;-57
2022/07/11 03:58:04;;;;;;;0.73;0.67;;;;;;;16.65;100.00;95374.75;5132852;27;20430;-57
2022/07/11 04:00:32;;;;;;;0.40;0.30;;;;;;;16.19;100.00;95375.81;5132921;27;20518;-57
2022/07/11 04:03:01;;;;;;;0.70;0.70;;;;;;;16.36;100.00;95389.34;5132883;27;20505;-57
2022/07/11 04:05:29;;;;;;;0.47;0.37;;;;;;;16.88;100.00;95376.31;5132599;27;20479;-57
2022/07/11 04:07:58;;;;;;;0.50;0.30;;;;;;;16.91;100.00;95365.00;5132480;27;20418;-57
2022/07/11 04:10:27;;;;;;;0.40;0.30;;;;;;;16.91;100.00;95381.84;5132415;28;20458;-57
2022/07/11 04:12:55;;;;;;;0.50;0.50;;;;;;;16.72;100.00;95385.84;5132380;28;20494;-57
2022/07/11 04:15:25;;;;;;;0.87;0.40;;;;;;;16.59;100.00;95381.34;5131585;28;20484;-57
2022/07/11 04:17:54;;;;;;;0.50;0.40;;;;;;;16.62;100.00;95378.84;5132263;28;20845;-57
2022/07/11 04:20:22;;;;;;;0.53;0.53;;;;;;;16.62;100.00;95384.19;5132018;28;20999;-57
2022/07/11 04:22:51;;;;;;;0.70;0.40;;;;;;;16.85;100.00;95368.91;5132343;28;20466;-57
2022/07/11 04:25:19;;;;;;;0.60;0.60;;;;;;;16.82;100.00;95375.69;5131956;28;20555;-57
2022/07/11 04:27:48;;;;;;;0.50;0.40;;;;;;;16.75;100.00;95388.69;5130971;28;20966;-57
2022/07/11 04:30:16;;;;;;;0.50;0.40;;;;;;;16.97;100.00;95379.84;5131161;28;20462;-57
2022/07/11 04:32:46;;;;;;;0.50;0.30;;;;;;;16.44;100.00;95377.13;5130611;28;20561;-57
2022/07/11 04:35:14;;;;;;;0.40;0.30;;;;;;;16.70;100.00;95385.34;5131606;28;20485;-58
2022/07/11 04:37:43;;;;;;;0.60;0.50;;;;;;;16.94;100.00;95383.91;5131770;28;20434;-58
2022/07/11 04:40:12;;;;;;;0.57;0.57;;;;;;;17.18;100.00;95378.19;5131689;28;20862;-56
2022/07/11 04:42:41;;;;;;;0.40;0.33;;;;;;;17.22;100.00;95378.38;5132315;28;20442;-57
2022/07/11 04:45:10;;;;;;;5.93;0.50;;;;;;;17.12;100.00;95352.66;5132395;28;20491;-57
2022/07/11 04:47:39;;;;;;;0.50;0.30;;;;;;;17.46;100.00;95387.59;5132223;27;20476;-57
2022/07/11 04:50:09;;;;;;;1.03;0.60;;;;;;;16.77;100.00;95394.53;5134896;27;20479;-57
2022/07/11 04:52:38;;;;;;;0.50;0.50;;;;;;;16.40;100.00;95392.97;5136117;27;20462;-57
2022/07/11 04:55:07;;;;;;;1.13;0.70;;;;;;;16.59;100.00;95397.41;5136029;27;20466;-57
2022/07/11 04:57:35;;;;;;;0.80;0.60;;;;;;;16.58;100.00;95393.13;5136133;27;20912;-57
2022/07/11 05:00:06;;;;;;;0.50;0.50;;;;;;;16.64;100.00;95397.28;5135996;27;20899;-57
2022/07/11 05:02:34;;;;;;;0.47;0.30;;;;;;;17.02;100.00;95366.31;5135869;27;20426;-57
2022/07/11 05:05:03;;;;;;;0.50;0.40;;;;;;;16.87;100.00;95385.47;5135728;27;20427;-57
2022/07/11 05:07:32;;;;;;;0.70;0.47;;;;;;;17.42;100.00;95383.97;5135917;27;20426;-57
2022/07/11 05:10:01;;;;;;;0.50;0.30;;;;;;;17.87;100.00;95383.78;5136118;27;20458;-57
2022/07/11 05:12:29;;;;;;;0.67;0.50;;;;;;;18.20;100.00;95387.63;5135924;27;20457;-58
2022/07/11 05:14:59;;;;;;;0.50;0.50;;;;;;;18.32;100.00;95388.56;5135520;27;20991;-58
2022/07/11 05:17:28;;;;;;;0.57;0.57;;;;;;;18.38;100.00;95392.69;5135685;27;20457;-58
2022/07/11 05:19:56;;;;;;;0.50;0.40;;;;;;;18.36;100.00;95381.47;5135640;27;20509;-59
2022/07/11 05:22:25;;;;;;;0.60;0.30;;;;;;;18.60;100.00;95385.56;5135667;27;20457;-59
2022/07/11 05:24:54;;;;;;;1.47;0.87;;;;;;;18.05;100.00;95363.94;5135977;27;20490;-60
2022/07/11 05:27:23;;;;;;;11.63;0.80;;;;;;;17.99;100.00;95379.38;5135537;27;20462;-59
2022/07/11 05:29:51;;;;;;;0.50;0.43;;;;;;;18.03;100.00;95374.19;5135818;27;20489;-60
2022/07/11 05:32:19;;;;;;;0.80;0.80;;;;;;;17.95;100.00;95383.03;5135377;27;20451;-59
2022/07/11 05:34:48;;;;;;;1.10;1.10;;;;;;;17.65;100.00;95382.03;5135356;27;20975;-60
2022/07/11 05:37:16;;;;;;;0.73;0.40;;;;;;;17.93;100.00;95382.53;5135406;27;20409;-60
2022/07/11 05:39:45;;;;;;;0.73;0.73;;;;;;;18.42;100.00;95381.31;5135222;27;20427;-60
2022/07/11 05:42:15;;;;;;;0.50;0.30;;;;;;;18.40;100.00;95373.56;5135206;27;20442;-59
2022/07/11 05:44:43;;;;;;;0.70;0.70;;;;;;;18.25;100.00;95382.09;5135502;27;20422;-60
2022/07/11 05:47:12;;;;;;;0.50;0.40;;;;;;;18.31;100.00;95388.91;5135266;27;20446;-61
2022/07/11 05:49:40;;;;;;;0.60;0.60;;;;;;;18.24;100.00;95370.56;5134877;27;21302;-61
2022/07/11 05:52:09;;;;;;;0.63;0.63;;;;;;;18.05;100.00;95377.34;5134988;27;20478;-60
2022/07/11 05:54:38;;;;;;;0.60;0.60;;;;;;;17.91;100.00;95318.47;5134127;27;20556;-61
2022/07/11 05:57:07;;;;;;;0.60;0.40;;;;;;;18.26;100.00;95381.00;5134798;27;20506;-60
2022/07/11 05:59:38;;;;;;;0.97;0.97;;;;;;;18.34;100.00;95374.84;5134663;27;20426;-61
2022/07/11 06:02:06;;;;;;;0.50;0.40;;;;;;;18.56;100.00;95377.38;5135192;27;20461;-62
2022/07/11 06:04:36;;;;;;;0.53;0.53;;;;;;;18.76;100.00;95375.94;5134460;27;20821;-61
2022/07/11 06:07:05;;;;;;;0.80;0.53;;;;;;;19.37;100.00;95374.66;5134924;27;20812;-62
2022/07/11 06:09:32;;;;;;;0.50;0.40;;;;;;;20.21;100.00;95377.94;5134474;27;20467;-61
2022/07/11 06:12:01;;;;;;;0.50;0.30;;;;;;;20.54;100.00;95366.50;5134551;27;20781;-61
2022/07/11 06:14:29;;;;;;;1.30;0.60;;;;;;;20.31;100.00;95365.25;5134177;27;20490;-60
2022/07/11 06:16:59;;;;;;;0.63;0.63;;;;;;;20.38;100.00;95365.50;5134233;27;20851;-61
2022/07/11 06:19:28;;;;;;;1.03;1.03;;;;;;;20.63;100.00;95364.50;5134819;27;20468;-60
2022/07/11 06:21:57;;;;;;;0.50;0.50;;;;;;;20.39;100.00;95367.88;5134307;27;20454;-60
2022/07/11 06:24:25;;;;;;;0.90;0.50;;;;;;;21.21;100.00;95369.63;5134348;27;20442;-59
2022/07/11 06:26:58;;;;;;;0.50;0.40;;;;;;;21.58;100.00;95369.66;5134592;27;20867;-59
2022/07/11 06:29:27;;;;;;;4.30;0.50;;;;;;;20.67;100.00;95370.81;5134090;27;20518;-59
2022/07/11 06:31:55;;;;;;;4.83;0.40;;;;;;;20.95;100.00;95363.69;5134238;27;20422;-59
2022/07/11 06:34:25;;;;;;;1.40;1.40;;;;;;;21.05;100.00;95365.97;5133957;27;20484;-60
2022/07/11 06:36:54;;;;;;;0.60;0.60;;;;;;;20.37;100.00;95363.94;5134052;27;20422;-59
2022/07/11 06:39:22;;;;;;;0.97;0.87;;;;;;;20.80;100.00;95362.41;5134284;27;20474;-59
2022/07/11 06:41:50;;;;;;;1.20;1.10;;;;;;;21.67;100.00;95363.03;5133928;27;20466;-59
2022/07/11 06:44:19;;;;;;;0.80;0.50;;;;;;;21.82;100.00;95353.47;5133726;27;20418;-59
2022/07/11 06:46:55;;;;;;;2.03;0.43;;;;;;;22.03;100.00;95359.53;5133662;27;20430;-59
2022/07/11 06:49:25;;;;;;;0.60;0.40;;;;;;;22.58;100.00;95354.19;5133871;27;20468;-59
2022/07/11 06:51:53;;;;;;;1.13;1.03;;;;;;;22.46;100.00;95346.16;5134065;27;20521;-58
2022/07/11 06:54:21;;;;;;;0.50;0.50;;;;;;;22.40;100.00;95357.50;5133657;27;20531;-57
2022/07/11 06:56:50;;;;;;;0.90;0.73;;;;;;;22.40;100.00;95352.91;5133661;27;20427;-57
2022/07/11 07:02:04;;;;;;;0.57;0.57;;;;;;;22.36;100.00;95359.34;5133591;27;20891;-57
2022/07/11 07:04:35;;;;;;;0.70;0.50;;;;;;;22.01;100.00;95356.41;5133625;27;20431;-57
2022/07/11 07:07:03;;;;;;;1.27;1.17;;;;;;;22.17;100.00;95348.34;5133612;27;20513;-57
2022/07/11 07:09:32;;;;;;;1.07;1.03;;;;;;;22.28;100.00;95344.84;5133531;27;20462;-57
2022/07/11 07:12:00;;;;;;;1.03;0.93;;;;;;;22.58;100.00;95348.78;5132918;27;20457;-57
2022/07/11 07:14:28;;;;;;;0.93;0.93;;;;;;;22.92;100.00;95352.03;5133192;27;20525;-57
2022/07/11 07:16:57;;;;;;;0.80;0.80;;;;;;;22.59;100.00;95342.25;5133640;27;20458;-57
2022/07/11 07:19:26;;;;;;;8.23;0.70;;;;;;;22.85;100.00;95349.13;5133285;27;20470;-57
2022/07/11 07:21:55;;;;;;;0.67;0.60;;;;;;;23.64;100.00;95346.16;5133202;27;20505;-57
2022/07/11 07:24:25;;;;;;;0.80;0.80;;;;;;;23.42;100.00;95317.03;5132918;27;20430;-59
2022/07/11 07:26:55;;;;;;;0.60;0.40;;;;;;;23.19;100.00;95354.69;5133438;27;20450;-57
2022/07/11 07:29:25;;;;;;;0.70;0.53;;;;;;;24.17;100.00;95341.19;5132883;27;20944;-58
2022/07/11 07:31:54;;;;;;;0.60;0.50;;;;;;;24.58;99.29;95341.28;5132880;27;20950;-59
2022/07/11 07:34:23;;;;;;;0.80;0.80;;;;;;;24.37;100.00;95280.44;5132892;27;20462;-57
2022/07/11 07:36:51;;;;;;;1.03;0.83;;;;;;;24.65;97.36;95310.81;5132854;27;20481;-58
2022/07/11 07:39:21;;;;;;;0.70;0.60;;;;;;;24.86;86.36;95327.50;5133304;27;20481;-61
2022/07/11 07:41:50;;;;;;;0.40;0.40;;;;;;;25.33;88.97;95308.16;5133282;27;20825;-63
2022/07/11 07:44:18;;;;;;;0.50;0.50;;;;;;;24.73;98.22;95249.38;5132915;27;20481;-64
2022/07/11 07:46:47;;;;;;;0.60;0.40;;;;;;;25.60;94.86;95320.66;5132592;27;20466;-64
2022/07/11 07:49:16;;;;;;;0.40;0.30;;;;;;;26.15;82.01;95313.72;5132872;27;20437;-64
2022/07/11 07:51:44;;;;;;;0.50;0.40;;;;;;;25.67;78.23;95325.41;5132508;27;20452;-64
2022/07/11 07:54:13;;;;;;;0.40;0.30;;;;;;;26.23;74.57;95312.69;5132818;27;20541;-64
2022/07/11 07:56:43;;;;;;;0.70;0.50;;;;;;;25.81;71.05;95314.75;5132682;27;20514;-63
2022/07/11 07:59:11;;;;;;;1.17;1.07;;;;;;;26.73;78.23;95308.59;5132810;27;20525;-64
2022/07/11 08:01:41;;;;;;;0.40;0.37;;;;;;;26.44;60.66;95302.06;5132883;27;20513;-63
2022/07/11 08:04:15;;;;;;;0.40;0.30;;;;;;;27.25;62.04;95310.31;5132964;27;20483;-63
2022/07/11 08:06:45;;;;;;;0.50;0.50;;;;;;;27.10;61.29;95314.06;5132434;27;20516;-63
2022/07/11 08:09:14;;;;;;;0.40;0.30;;;;;;;27.62;60.58;95313.78;5132319;28;20465;-61
2022/07/11 08:11:50;;;;;;;0.50;0.40;;;;;;;27.88;61.53;95309.28;5132896;28;20434;-60
2022/07/11 08:14:19;;;;;;;0.40;0.30;;;;;;;27.97;58.46;95315.16;5132078;28;21063;-61
2022/07/11 08:16:50;;;;;;;0.50;0.30;;;;;;;27.59;41.57;95308.28;5132243;28;20478;-61
2022/07/11 08:19:20;;;;;;;0.47;0.40;;;;;;;27.76;41.24;95173.38;5132485;28;20462;-62
2022/07/11 08:21:49;;;;;;;0.40;0.30;;;;;;;27.77;43.41;95292.06;5132806;28;20469;-59
2022/07/11 08:24:17;;;;;;;0.50;0.50;;;;;;;25.67;46.31;94972.53;5135811;27;20447;-61
2022/07/11 08:26:45;;;;;;;0.57;0.57;;;;;;;28.62;42.39;95296.06;5137142;27;20469;-61
2022/07/11 08:29:15;;;;;;;0.40;0.33;;;;;;;28.78;43.94;95293.78;5136559;27;20876;-60
2022/07/11 08:31:44;;;;;;;0.30;0.30;;;;;;;28.91;42.97;95284.06;5136568;27;20477;-59
2022/07/11 08:34:12;;;;;;;0.40;0.30;;;;;;;29.62;46.72;95289.59;5136358;27;20881;-65
2022/07/11 08:36:43;;;;;;;0.70;0.40;;;;;;;29.66;36.75;95296.63;5136490;27;20434;-64
2022/07/11 08:39:12;;;;;;;0.30;0.30;;;;;;;30.05;34.85;95291.91;5136294;27;20436;-62
2022/07/11 08:41:44;;;;;;;0.30;0.20;;;;;;;30.20;35.96;95289.91;5136288;27;20491;-60
2022/07/11 08:44:13;;;;;;;0.37;0.27;;;;;;;29.58;33.26;95210.38;5136441;27;20537;-59
2022/07/11 08:46:43;;;;;;;0.40;0.30;;;;;;;30.42;34.96;95276.97;5136615;27;20441;-59
2022/07/11 08:49:13;;;;;;;0.30;0.30;;;;;;;30.68;32.34;95281.94;5136358;27;20448;-59
2022/07/11 08:51:42;;;;;;;0.37;0.30;;;;;;;29.94;35.29;95279.44;5136431;27;20802;-59
2022/07/11 08:54:12;;;;;;;0.50;0.30;;;;;;;30.01;36.92;95274.72;5136012;27;20430;-58
2022/07/11 08:56:44;;;;;;;0.30;0.27;;;;;;;29.48;31.99;95268.53;5136423;27;20465;-59
2022/07/11 08:59:17;;;;;;;0.40;0.40;;;;;;;30.30;34.67;95274.66;5136356;27;20509;-58
2022/07/11 09:01:52;;;;;;;1.13;0.40;;;;;;;30.61;35.94;95265.56;5136038;27;20429;-58
2022/07/11 09:04:23;;;;;;;0.30;0.20;;;;;;;31.42;32.18;95270.53;5135825;27;21140;-58
2022/07/11 09:06:52;;;;;;;0.40;0.40;;;;;;;31.82;29.97;95269.81;5135932;27;20435;-58
2022/07/11 09:09:20;;;;;;;0.60;0.30;;;;;;;31.54;32.32;95267.31;5135782;27;20513;-58
2022/07/11 09:11:51;;;;;;;0.50;0.40;;;;;;;30.65;31.93;95256.16;5135921;27;20459;-59
2022/07/11 09:14:24;;;;;;;0.30;0.30;;;;;;;30.67;31.80;95286.63;5135491;27;21017;-57
2022/07/11 09:17:01;;;;;;;0.30;0.20;;;;;;;30.85;29.90;95267.38;5134956;27;20537;-59
2022/07/11 09:19:32;;;;;;;0.43;0.40;;;;;;;31.27;30.16;95275.31;5135653;27;20489;-59
2022/07/11 09:27:48;;;;;;;0.40;0.30;;;;;;;32.45;28.84;95267.56;5135641;27;20476;-73
2022/07/11 09:30:22;;;;;;;0.40;0.30;;;;;;;31.63;28.60;95247.66;5135276;27;20919;-59
2022/07/11 09:32:57;;;;;;;0.50;0.40;;;;;;;32.07;28.35;95271.53;5134719;27;20514;-60
2022/07/11 09:35:30;;;;;;;0.30;0.30;;;;;;;31.73;28.91;95268.69;5134458;27;21017;-60
2022/07/11 09:37:58;;;;;;;0.40;0.30;;;;;;;31.97;30.06;95259.47;5135540;27;20478;-60
2022/07/11 09:40:27;;;;;;;0.40;0.30;;;;;;;31.66;29.43;95255.84;5135414;27;20897;-61
2022/07/11 09:42:57;;;;;;;0.30;0.20;;;;;;;31.11;32.61;95257.84;5135246;27;20424;-61
2022/07/11 09:45:27;;;;;;;0.40;0.30;;;;;;;31.59;31.85;95266.88;5134977;27;20481;-61
2022/07/11 09:47:59;;;;;;;0.30;0.30;;;;;;;31.08;31.82;95262.16;5135167;27;20422;-61
2022/07/11 09:50:29;;;;;;;0.40;0.37;;;;;;;30.71;31.08;95251.03;5135121;27;20471;-61
2022/07/11 09:53:06;;;;;;;0.50;0.40;;;;;;;30.80;30.26;95254.09;5134964;27;20424;-60
2022/07/11 09:55:36;;;;;;;0.40;0.30;;;;;;;31.96;30.15;95255.94;5135240;27;20554;-61
2022/07/11 09:58:21;;;;;;;0.40;0.30;;;;;;;32.32;31.34;95259.09;5135429;27;20420;-61
2022/07/11 10:00:52;;;;;;;0.30;0.30;;;;;;;31.60;29.91;95257.47;5135311;27;20799;-61
2022/07/11 10:03:25;;;;;;;0.50;0.37;;;;;;;32.74;31.17;95252.31;5135259;27;20428;-61
2022/07/11 10:06:13;;;;;;;1.90;0.40;;;;;;;32.64;28.76;95254.00;5134638;27;20435;-60
2022/07/11 10:08:41;;;;;;;0.40;0.30;;;;;;;31.26;30.70;95248.34;5134554;27;20946;-61
2022/07/11 10:11:11;;;;;;;0.50;0.50;;;;;;;31.54;31.60;95239.16;5134552;27;20616;-62
2022/07/11 10:13:40;;;;;;;0.40;0.30;;;;;;;29.20;32.65;95263.06;5134811;27;20475;-63
2022/07/11 10:16:18;;;;;;;0.40;0.30;;;;;;;29.10;33.95;95259.13;5134092;27;20556;-63
2022/07/11 10:18:57;;;;;;;0.40;0.30;;;;;;;29.57;32.52;95260.75;5134547;27;20793;-62
2022/07/11 10:21:32;;;;;;;0.40;0.30;;;;;;;30.64;31.92;95251.84;5133423;27;20523;-62
2022/07/11 10:24:12;;;;;;;0.60;0.30;;;;;;;31.08;31.64;95256.69;5134482;27;20916;-61
2022/07/11 10:26:47;;;;;;;0.40;0.40;;;;;;;31.65;31.90;95253.53;5134370;27;20492;-61
2022/07/11 10:29:18;;;;;;;0.40;0.30;;;;;;;30.39;31.34;95253.13;5134389;27;20462;-61
2022/07/11 10:32:04;;;;;;;0.63;0.63;;;;;;;30.21;30.84;95252.41;5134159;27;20458;-63
2022/07/11 10:34:43;;;;;;;0.40;0.30;;;;;;;29.96;32.13;95256.00;5134429;27;20427;-62
2022/07/11 10:37:12;;;;;;;0.30;0.30;;;;;;;29.28;29.41;95256.44;5134086;27;20605;-62
2022/07/11 10:39:58;;;;;;;0.40;0.30;;;;;;;29.29;30.89;95258.78;5134115;27;20522;-62
2022/07/11 10:42:40;;;;;;;0.40;0.30;;;;;;;28.88;31.42;95263.78;5134032;27;20439;-64
2022/07/11 10:45:10;;;;;;;0.40;0.30;;;;;;;29.10;31.00;95259.13;5133977;27;20518;-62
2022/07/11 10:47:42;;;;;;;0.30;0.30;;;;;;;30.39;30.67;95256.66;5132805;27;20461;-61
2022/07/11 10:50:33;;;;;;;0.40;0.30;;;;;;;29.71;29.02;95257.97;5133795;27;20923;-62
2022/07/11 10:53:08;;;;;;;0.30;0.20;;;;;;;29.43;32.37;95255.25;5133848;27;20470;-63
2022/07/11 10:55:41;;;;;;;0.30;0.30;;;;;;;29.77;31.95;95253.69;5133176;27;20509;-63
2022/07/11 10:58:19;;;;;;;0.40;0.40;;;;;;;28.77;31.79;95262.97;5133658;27;20415;-64
2022/07/11 11:00:50;;;;;;;0.40;0.30;;;;;;;27.75;31.74;95267.97;5133111;27;20449;-64
2022/07/11 11:03:19;;;;;;;0.73;0.30;;;;;;;27.90;34.88;95268.81;5133512;27;20509;-65
2022/07/11 11:05:52;;;;;;;0.40;0.30;;;;;;;28.55;33.40;95266.78;5133612;27;20418;-65
2022/07/11 11:08:43;;;;;;;0.40;0.30;;;;;;;28.66;32.55;95261.41;5133540;27;20422;-63
2022/07/11 11:11:38;;;;;;;0.43;0.40;;;;;;;28.46;33.68;95273.78;5133286;27;20475;-61
2022/07/11 11:14:29;;;;;;;0.53;0.30;;;;;;;27.35;34.91;95259.88;5133239;27;20513;-60
2022/07/11 11:17:37;;;;;;;0.40;0.30;;;;;;;27.42;36.30;95270.84;5133471;27;20553;-60
2022/07/11 11:20:06;;;;;;;0.40;0.40;;;;;;;26.85;37.00;95269.50;5133523;27;20439;-60
2022/07/11 11:22:38;;;;;;;0.40;0.30;;;;;;;27.00;38.39;95272.00;5133564;27;20465;-60
2022/07/11 11:25:08;;;;;;;0.50;0.40;;;;;;;27.82;35.15;95256.31;5133385;27;20453;-62
2022/07/11 11:28:04;;;;;;;0.40;0.40;;;;;;;28.77;34.39;95262.19;5133104;27;20484;-65
2022/07/11 11:30:33;;;;;;;0.53;0.50;;;;;;;28.53;33.10;95260.94;5132964;27;20430;-64
2022/07/11 11:33:01;;;;;;;0.70;0.63;;;;;;;28.38;34.76;95264.00;5133118;27;20469;-63
2022/07/11 11:35:30;;;;;;;0.60;0.43;;;;;;;27.95;32.02;95261.06;5132873;27;20477;-63
2022/07/11 11:38:01;;;;;;;0.40;0.30;;;;;;;27.40;33.65;95249.41;5133423;27;20418;-62
2022/07/11 11:40:30;;;;;;;0.60;0.40;;;;;;;27.97;31.16;95252.50;5133026;27;20423;-61
2022/07/11 11:42:58;;;;;;;0.40;0.30;;;;;;;28.73;31.75;95247.78;5132851;27;20462;-62
2022/07/11 11:45:27;;;;;;;0.40;0.30;;;;;;;28.90;30.68;95249.75;5132875;27;20791;-64
2022/07/11 11:47:55;;;;;;;1.43;1.43;;;;;;;29.04;31.98;95249.00;5132854;27;20860;-65
2022/07/11 11:50:24;;;;;;;1.13;0.37;;;;;;;28.25;31.13;95253.47;5133437;27;20423;-65
2022/07/11 11:52:53;;;;;;;0.50;0.40;;;;;;;27.75;31.63;95250.81;5132921;27;20956;-64